createdAt,value
2022-11-09T00:00:10.128Z,72.04
2022-11-09T00:01:10.184Z,72.41
2022-11-09T00:02:10.124Z,71.80
2022-11-09T00:03:10.103Z,72.55
2022-11-09T00:04:10.119Z,71.80
2022-11-09T00:05:10.105Z,71.91
2022-11-09T00:06:10.108Z,71.94
2022-11-09T00:07:11.153Z,72.21
2022-11-09T00:08:10.106Z,72.11
2022-11-09T00:09:11.095Z,72.21
2022-11-09T00:10:10.179Z,72.41
2022-11-09T00:11:10.080Z,72.31
2022-11-09T00:12:10.056Z,72.52
2022-11-09T00:13:10.048Z,72.11
2022-11-09T00:14:10.039Z,72.21
2022-11-09T00:15:10.049Z,72.21
2022-11-09T00:16:10.051Z,72.31
2022-11-09T00:17:10.027Z,72.72
2022-11-09T00:18:10.016Z,73.02
2022-11-09T00:19:10.026Z,72.62
2022-11-09T00:20:10.003Z,72.31
2022-11-09T00:21:10.025Z,72.85
2022-11-09T00:22:09.992Z,73.06
2022-11-09T00:23:09.988Z,73.36
2022-11-09T00:24:09.984Z,73.57
2022-11-09T00:25:09.987Z,74.18
2022-11-09T00:26:09.979Z,74.07
2022-11-09T00:27:13.948Z,73.36
2022-11-09T00:28:10.943Z,72.92
2022-11-09T00:29:09.940Z,72.92
2022-11-09T00:30:09.932Z,73.13
2022-11-09T00:31:09.933Z,73.43
2022-11-09T00:32:09.937Z,72.92
2022-11-09T00:33:09.911Z,73.16
2022-11-09T00:34:09.884Z,73.36
2022-11-09T00:35:09.920Z,73.57
2022-11-09T00:36:09.920Z,74.38
2022-11-09T00:37:09.883Z,74.07
2022-11-09T00:38:09.931Z,74.21
2022-11-09T00:39:09.891Z,74.11
2022-11-09T00:40:09.860Z,74.28
2022-11-09T00:41:09.848Z,74.18
2022-11-09T00:42:09.887Z,74.18
2022-11-09T00:43:09.844Z,73.97
2022-11-09T00:44:09.859Z,74.52
2022-11-09T00:45:09.863Z,74.48
2022-11-09T00:46:09.822Z,74.72
2022-11-09T00:47:09.845Z,74.82
2022-11-09T00:48:09.814Z,74.96
2022-11-09T00:49:09.804Z,75.67
2022-11-09T00:50:09.796Z,75.57
2022-11-09T00:51:09.784Z,76.59
2022-11-09T00:52:09.805Z,76.18
2022-11-09T00:53:09.777Z,76.38
2022-11-09T00:54:09.764Z,76.07
2022-11-09T00:55:09.768Z,76.28
2022-11-09T00:56:09.753Z,76.25
2022-11-09T00:57:09.749Z,76.38
2022-11-09T00:58:09.777Z,76.38
2022-11-09T00:59:09.854Z,76.28
2022-11-09T01:00:09.702Z,76.28
2022-11-09T01:01:09.741Z,76.38
2022-11-09T01:02:09.676Z,76.28
2022-11-09T01:03:09.688Z,76.59
2022-11-09T01:04:09.662Z,76.31
2022-11-09T01:05:09.656Z,76.48
2022-11-09T01:06:09.651Z,77.09
2022-11-09T01:07:09.732Z,76.42
2022-11-09T01:08:09.640Z,76.92
2022-11-09T01:09:09.621Z,76.28
2022-11-09T01:10:09.608Z,76.42
2022-11-09T01:11:09.608Z,76.38
2022-11-09T01:12:09.615Z,76.89
2022-11-09T01:13:09.614Z,76.92
2022-11-09T01:14:09.587Z,76.72
2022-11-09T01:15:09.589Z,76.52
2022-11-09T01:16:09.585Z,77.84
2022-11-09T01:17:09.564Z,77.33
2022-11-09T01:18:09.572Z,77.64
2022-11-09T01:19:09.552Z,77.81
2022-11-09T01:20:09.553Z,77.74
2022-11-09T01:21:09.544Z,77.60
2022-11-09T01:22:09.539Z,77.84
2022-11-09T01:23:09.537Z,77.50
2022-11-09T01:24:09.552Z,77.91
2022-11-09T01:25:09.521Z,77.84
2022-11-09T01:26:09.517Z,78.05
2022-11-09T01:27:09.514Z,78.35
2022-11-09T01:28:09.508Z,78.25
2022-11-09T01:29:09.539Z,78.45
2022-11-09T01:30:09.483Z,78.25
2022-11-09T01:31:09.480Z,78.55
2022-11-09T01:32:09.479Z,79.16
2022-11-09T01:33:09.477Z,79.06
2022-11-09T01:34:09.473Z,79.57
2022-11-09T01:35:09.452Z,79.57
2022-11-09T01:36:09.528Z,79.68
2022-11-09T01:37:09.447Z,80.08
2022-11-09T01:38:09.439Z,79.77
2022-11-09T01:39:09.444Z,80.32
2022-11-09T01:40:09.432Z,80.99
2022-11-09T01:41:09.420Z,81.60
2022-11-09T01:42:09.413Z,81.51
2022-11-09T01:43:09.412Z,82.21
2022-11-09T01:44:09.415Z,82.32
2022-11-09T01:45:09.399Z,82.28
2022-11-09T01:46:09.389Z,82.93
2022-11-09T01:47:09.380Z,83.37
2022-11-09T01:48:09.379Z,84.29
2022-11-09T01:49:09.387Z,85.11
2022-11-09T01:50:09.367Z,85.21
2022-11-09T01:51:09.357Z,84.80
2022-11-09T01:52:09.350Z,85.00
2022-11-09T01:53:09.343Z,85.31
2022-11-09T01:54:09.351Z,85.72
2022-11-09T01:55:09.337Z,86.22
2022-11-09T01:56:09.376Z,85.51
2022-11-09T01:57:09.313Z,86.22
2022-11-09T01:58:09.312Z,86.02
2022-11-09T01:59:09.301Z,86.47
2022-11-09T02:00:09.321Z,87.04
2022-11-09T02:01:09.474Z,86.63
2022-11-09T02:02:09.280Z,88.51
2022-11-09T02:03:09.280Z,87.35
2022-11-09T02:04:09.279Z,87.69
2022-11-09T02:05:09.277Z,88.31
2022-11-09T02:06:09.258Z,88.31
2022-11-09T02:07:09.299Z,88.10
2022-11-09T02:08:09.244Z,88.00
2022-11-09T02:09:09.231Z,88.71
2022-11-09T02:10:09.256Z,88.51
2022-11-09T02:11:09.225Z,88.65
2022-11-09T02:12:09.219Z,88.65
2022-11-09T02:13:09.207Z,88.85
2022-11-09T02:14:09.202Z,89.06
2022-11-09T02:15:09.203Z,89.12
2022-11-09T02:16:09.187Z,89.47
2022-11-09T02:17:09.187Z,90.28
2022-11-09T02:18:09.190Z,89.97
2022-11-09T02:19:09.171Z,89.87
2022-11-09T02:20:09.242Z,90.18
2022-11-09T02:21:09.151Z,90.59
2022-11-09T02:22:09.147Z,90.28
2022-11-09T02:23:09.152Z,90.38
2022-11-09T02:24:09.138Z,91.44
2022-11-09T02:25:09.138Z,91.44
2022-11-09T02:26:09.231Z,91.44
2022-11-09T02:27:09.126Z,91.40
2022-11-09T02:28:10.114Z,91.55
2022-11-09T02:29:09.099Z,92.16
2022-11-09T02:30:09.091Z,92.46
2022-11-09T02:31:09.194Z,92.36
2022-11-09T02:32:09.082Z,92.32
2022-11-09T02:33:10.079Z,92.67
2022-11-09T02:34:09.077Z,92.87
2022-11-09T02:35:09.094Z,93.07
2022-11-09T02:36:09.272Z,93.18
2022-11-09T02:37:09.054Z,93.48
2022-11-09T02:38:09.046Z,93.69
2022-11-09T02:39:09.045Z,93.89
2022-11-09T02:40:09.038Z,93.79
2022-11-09T02:41:09.046Z,93.79
2022-11-09T02:42:10.502Z,93.89
2022-11-09T02:43:10.023Z,94.20
2022-11-09T02:44:09.018Z,94.50
2022-11-09T02:45:09.014Z,94.30
2022-11-09T02:46:09.018Z,94.30
2022-11-09T02:47:09.001Z,94.60
2022-11-09T02:48:08.986Z,94.91
2022-11-09T02:49:08.977Z,95.52
2022-11-09T02:50:08.983Z,95.32
2022-11-09T02:51:08.986Z,95.36
2022-11-09T02:52:08.967Z,95.87
2022-11-09T02:53:08.961Z,96.18
2022-11-09T02:54:08.953Z,96.59
2022-11-09T02:55:08.954Z,97.61
2022-11-09T02:56:08.941Z,97.20
2022-11-09T02:57:08.955Z,97.14
2022-11-09T02:58:08.930Z,97.00
2022-11-09T02:59:08.918Z,97.61
2022-11-09T03:00:08.908Z,97.71
2022-11-09T03:01:08.987Z,97.91
2022-11-09T03:02:08.906Z,97.20
2022-11-09T03:03:08.892Z,97.71
2022-11-09T03:04:08.880Z,96.84
2022-11-09T03:05:08.868Z,96.95
2022-11-09T03:06:09.873Z,97.25
2022-11-09T03:07:08.936Z,97.25
2022-11-09T03:08:08.861Z,97.25
2022-11-09T03:09:08.849Z,96.84
2022-11-09T03:10:08.847Z,97.25
2022-11-09T03:11:08.833Z,97.16
2022-11-09T03:12:08.841Z,96.44
2022-11-09T03:13:08.834Z,97.56
2022-11-09T03:14:08.805Z,96.64
2022-11-09T03:15:08.815Z,96.34
2022-11-09T03:16:08.804Z,96.64
2022-11-09T03:17:08.788Z,96.84
2022-11-09T03:18:08.790Z,96.75
2022-11-09T03:19:08.781Z,96.95
2022-11-09T03:20:08.768Z,97.16
2022-11-09T03:21:08.761Z,97.16
2022-11-09T03:22:08.761Z,97.36
2022-11-09T03:23:08.761Z,97.16
2022-11-09T03:24:08.750Z,97.25
2022-11-09T03:25:08.747Z,97.56
2022-11-09T03:26:08.720Z,97.56
2022-11-09T03:27:08.728Z,97.36
2022-11-09T03:28:08.750Z,96.84
2022-11-09T03:29:08.715Z,97.31
2022-11-09T03:30:08.713Z,97.25
2022-11-09T03:31:08.705Z,97.16
2022-11-09T03:32:08.682Z,97.05
2022-11-09T03:33:08.691Z,97.77
2022-11-09T03:34:08.694Z,97.66
2022-11-09T03:35:08.672Z,97.77
2022-11-09T03:36:08.673Z,97.36
2022-11-09T03:37:08.662Z,97.41
2022-11-09T03:38:08.649Z,97.87
2022-11-09T03:39:08.670Z,98.99
2022-11-09T03:40:08.661Z,97.87
2022-11-09T03:41:08.643Z,98.07
2022-11-09T03:42:08.629Z,97.97
2022-11-09T03:43:08.625Z,98.58
2022-11-09T03:44:08.610Z,98.18
2022-11-09T03:45:08.623Z,98.07
2022-11-09T03:46:08.601Z,99.29
2022-11-09T03:47:08.601Z,98.89
2022-11-09T03:48:08.591Z,98.89
2022-11-09T03:49:08.586Z,98.89
2022-11-09T03:50:08.591Z,99.09
2022-11-09T03:51:08.564Z,98.48
2022-11-09T03:52:08.557Z,98.48
2022-11-09T03:53:08.581Z,98.38
2022-11-09T03:54:08.547Z,97.62
2022-11-09T03:55:08.561Z,98.02
2022-11-09T03:56:08.538Z,98.07
2022-11-09T03:57:08.533Z,98.02
2022-11-09T03:58:08.528Z,97.62
2022-11-09T03:59:08.518Z,97.62
2022-11-09T04:00:08.526Z,98.13
2022-11-09T04:01:08.505Z,97.31
2022-11-09T04:02:08.637Z,97.41
2022-11-09T04:03:08.493Z,97.00
2022-11-09T04:04:08.484Z,97.52
2022-11-09T04:05:08.480Z,97.11
2022-11-09T04:06:08.465Z,97.21
2022-11-09T04:07:08.491Z,97.31
2022-11-09T04:08:08.445Z,97.27
2022-11-09T04:09:08.444Z,96.86
2022-11-09T04:10:08.444Z,97.27
2022-11-09T04:11:08.435Z,96.96
2022-11-09T04:12:08.424Z,96.39
2022-11-09T04:13:08.430Z,96.45
2022-11-09T04:14:08.415Z,96.60
2022-11-09T04:15:08.414Z,96.80
2022-11-09T04:16:08.430Z,97.27
2022-11-09T04:17:08.402Z,97.41
2022-11-09T04:18:08.395Z,96.91
2022-11-09T04:19:08.383Z,96.91
2022-11-09T04:20:08.375Z,96.80
2022-11-09T04:21:08.378Z,97.62
2022-11-09T04:22:08.361Z,97.62
2022-11-09T04:23:08.342Z,97.52
2022-11-09T04:24:08.362Z,97.52
2022-11-09T04:25:08.351Z,97.67
2022-11-09T04:26:08.354Z,97.72
2022-11-09T04:27:08.335Z,97.62
2022-11-09T04:28:08.326Z,97.62
2022-11-09T04:29:08.322Z,97.52
2022-11-09T04:30:08.332Z,97.11
2022-11-09T04:31:08.303Z,97.62
2022-11-09T04:32:08.320Z,97.92
2022-11-09T04:33:08.302Z,97.72
2022-11-09T04:34:08.294Z,97.82
2022-11-09T04:35:08.292Z,97.52
2022-11-09T04:36:08.271Z,97.62
2022-11-09T04:37:08.275Z,98.02
2022-11-09T04:38:08.262Z,97.62
2022-11-09T04:39:08.269Z,97.82
2022-11-09T04:40:08.238Z,97.31
2022-11-09T04:41:08.226Z,99.19
2022-11-09T04:42:08.250Z,98.33
2022-11-09T04:43:08.241Z,98.02
2022-11-09T04:44:08.345Z,99.04
2022-11-09T04:45:08.223Z,98.23
2022-11-09T04:46:08.203Z,99.04
2022-11-09T04:47:08.210Z,98.33
2022-11-09T04:48:08.207Z,98.02
2022-11-09T04:49:08.212Z,97.72
2022-11-09T04:50:08.199Z,98.39
2022-11-09T04:51:08.171Z,98.02
2022-11-09T04:52:08.195Z,97.82
2022-11-09T04:53:08.233Z,98.02
2022-11-09T04:54:08.166Z,98.33
2022-11-09T04:55:08.162Z,98.94
2022-11-09T04:56:08.152Z,98.94
2022-11-09T04:57:08.151Z,98.84
2022-11-09T04:58:08.155Z,98.94
2022-11-09T04:59:08.131Z,98.84
2022-11-09T05:00:08.127Z,98.94
2022-11-09T05:01:08.115Z,98.74
2022-11-09T05:02:08.119Z,98.54
2022-11-09T05:03:08.117Z,98.74
2022-11-09T05:04:08.193Z,98.94
2022-11-09T05:05:08.079Z,98.94
2022-11-09T05:06:08.091Z,98.23
2022-11-09T05:07:08.165Z,97.92
2022-11-09T05:08:08.074Z,98.23
2022-11-09T05:09:08.063Z,97.78
2022-11-09T05:10:08.072Z,97.98
2022-11-09T05:11:08.040Z,97.92
2022-11-09T05:12:08.043Z,97.67
2022-11-09T05:13:08.066Z,97.27
2022-11-09T05:14:08.027Z,97.16
2022-11-09T05:15:08.023Z,98.08
2022-11-09T05:16:08.019Z,97.27
2022-11-09T05:17:08.022Z,97.88
2022-11-09T05:18:08.038Z,97.47
2022-11-09T05:19:07.998Z,97.67
2022-11-09T05:20:08.000Z,97.06
2022-11-09T05:21:07.986Z,97.57
2022-11-09T05:22:07.987Z,97.32
2022-11-09T05:23:07.981Z,96.86
2022-11-09T05:24:07.980Z,97.06
2022-11-09T05:25:07.962Z,96.81
2022-11-09T05:26:07.962Z,97.16
2022-11-09T05:27:07.946Z,96.45
2022-11-09T05:28:09.695Z,96.55
2022-11-09T05:29:07.955Z,96.76
2022-11-09T05:30:07.935Z,96.66
2022-11-09T05:31:07.953Z,97.12
2022-11-09T05:32:07.927Z,97.27
2022-11-09T05:33:07.921Z,97.06
2022-11-09T05:34:07.943Z,97.06
2022-11-09T05:35:07.906Z,97.47
2022-11-09T05:36:07.899Z,96.35
2022-11-09T05:37:07.878Z,96.25
2022-11-09T05:38:07.881Z,96.25
2022-11-09T05:39:07.890Z,96.41
2022-11-09T05:40:07.850Z,96.61
2022-11-09T05:41:07.928Z,96.35
2022-11-09T05:42:07.910Z,96.92
2022-11-09T05:43:07.826Z,97.22
2022-11-09T05:44:07.831Z,96.30
2022-11-09T05:45:40.229Z,96.61
2022-11-09T05:46:09.814Z,97.02
2022-11-09T05:47:07.815Z,97.02
2022-11-09T05:48:07.806Z,97.02
2022-11-09T05:49:07.799Z,96.66
2022-11-09T05:50:07.827Z,97.32
2022-11-09T05:51:07.797Z,97.16
2022-11-09T05:52:07.775Z,96.66
2022-11-09T05:53:07.785Z,96.55
2022-11-09T05:54:07.776Z,96.76
2022-11-09T05:55:07.809Z,97.06
2022-11-09T05:56:07.758Z,96.86
2022-11-09T05:57:07.763Z,97.06
2022-11-09T05:58:07.751Z,97.06
2022-11-09T05:59:07.738Z,96.86
2022-11-09T06:00:11.001Z,96.76
2022-11-09T06:01:08.743Z,97.16
2022-11-09T06:02:07.785Z,96.35
2022-11-09T06:03:07.704Z,96.66
2022-11-09T06:04:07.714Z,96.96
2022-11-09T06:05:07.699Z,97.06
2022-11-09T06:06:08.878Z,96.55
2022-11-09T06:07:08.836Z,96.55
2022-11-09T06:08:07.665Z,96.66
2022-11-09T06:09:07.670Z,96.35
2022-11-09T06:10:07.661Z,96.45
2022-11-09T06:11:07.963Z,96.76
2022-11-09T06:12:07.647Z,97.27
2022-11-09T06:13:07.644Z,96.35
2022-11-09T06:14:07.625Z,95.59
2022-11-09T06:15:07.617Z,95.49
2022-11-09T06:16:07.658Z,95.79
2022-11-09T06:17:07.611Z,95.59
2022-11-09T06:18:07.616Z,95.69
2022-11-09T06:19:07.597Z,95.90
2022-11-09T06:20:07.595Z,95.59
2022-11-09T06:21:07.587Z,95.08
2022-11-09T06:22:08.582Z,95.29
2022-11-09T06:23:07.573Z,95.18
2022-11-09T06:24:07.569Z,95.18
2022-11-09T06:25:07.570Z,95.29
2022-11-09T06:26:07.555Z,95.29
2022-11-09T06:27:07.573Z,94.78
2022-11-09T06:28:07.546Z,94.78
2022-11-09T06:29:07.538Z,94.47
2022-11-09T06:30:07.538Z,94.68
2022-11-09T06:31:07.526Z,94.68
2022-11-09T06:32:07.533Z,95.69
2022-11-09T06:33:07.564Z,95.29
2022-11-09T06:34:07.503Z,95.69
2022-11-09T06:35:07.559Z,95.69
2022-11-09T06:36:07.485Z,95.29
2022-11-09T06:37:07.507Z,95.53
2022-11-09T06:38:07.479Z,95.08
2022-11-09T06:39:07.475Z,95.08
2022-11-09T06:40:07.461Z,95.08
2022-11-09T06:41:07.465Z,94.57
2022-11-09T06:42:07.515Z,94.88
2022-11-09T06:43:07.462Z,94.52
2022-11-09T06:44:07.445Z,94.07
2022-11-09T06:45:07.446Z,94.72
2022-11-09T06:46:07.423Z,94.17
2022-11-09T06:47:07.425Z,94.42
2022-11-09T06:48:07.422Z,94.07
2022-11-09T06:49:07.402Z,94.37
2022-11-09T06:50:07.401Z,94.17
2022-11-09T06:51:07.387Z,94.42
2022-11-09T06:52:07.391Z,94.27
2022-11-09T06:53:07.397Z,94.37
2022-11-09T06:54:07.370Z,93.86
2022-11-09T06:55:07.361Z,94.52
2022-11-09T06:56:07.355Z,93.96
2022-11-09T06:57:07.346Z,94.42
2022-11-09T06:58:07.355Z,94.47
2022-11-09T06:59:07.415Z,94.07
2022-11-09T07:00:07.345Z,94.31
2022-11-09T07:01:07.362Z,94.31
2022-11-09T07:02:07.326Z,94.21
2022-11-09T07:03:07.315Z,94.31
2022-11-09T07:04:07.322Z,94.31
2022-11-09T07:05:07.305Z,94.31
2022-11-09T07:06:07.300Z,94.31
2022-11-09T07:07:07.359Z,93.76
2022-11-09T07:08:07.284Z,94.42
2022-11-09T07:09:07.285Z,94.47
2022-11-09T07:10:07.265Z,94.42
2022-11-09T07:11:07.253Z,94.52
2022-11-09T07:12:07.253Z,94.42
2022-11-09T07:13:07.254Z,94.27
2022-11-09T07:14:07.306Z,94.37
2022-11-09T07:15:07.241Z,94.47
2022-11-09T07:16:07.225Z,93.76
2022-11-09T07:17:07.221Z,94.07
2022-11-09T07:18:07.224Z,93.45
2022-11-09T07:19:07.213Z,93.76
2022-11-09T07:20:07.214Z,93.51
2022-11-09T07:21:12.852Z,93.25
2022-11-09T07:22:09.184Z,93.66
2022-11-09T07:23:07.182Z,93.71
2022-11-09T07:24:07.185Z,93.51
2022-11-09T07:25:07.166Z,93.76
2022-11-09T07:26:07.153Z,93.21
2022-11-09T07:27:07.149Z,93.82
2022-11-09T07:28:07.149Z,93.51
2022-11-09T07:29:07.169Z,93.41
2022-11-09T07:30:07.138Z,92.74
2022-11-09T07:31:07.136Z,92.90
2022-11-09T07:32:07.117Z,93.21
2022-11-09T07:33:09.909Z,93.45
2022-11-09T07:34:08.117Z,93.01
2022-11-09T07:35:07.105Z,93.10
2022-11-09T07:36:07.100Z,93.01
2022-11-09T07:37:07.093Z,93.01
2022-11-09T07:38:07.090Z,92.74
2022-11-09T07:39:07.092Z,93.05
2022-11-09T07:40:07.076Z,93.21
2022-11-09T07:41:07.057Z,92.80
2022-11-09T07:42:07.061Z,92.80
2022-11-09T07:43:07.060Z,92.80
2022-11-09T07:44:07.055Z,93.15
2022-11-09T07:45:07.078Z,93.25
2022-11-09T07:46:07.034Z,93.41
2022-11-09T07:47:07.029Z,92.60
2022-11-09T07:48:07.020Z,93.41
2022-11-09T07:49:07.018Z,92.80
2022-11-09T07:50:07.041Z,92.60
2022-11-09T07:51:07.006Z,92.70
2022-11-09T07:52:06.996Z,93.01
2022-11-09T07:53:06.981Z,93.10
2022-11-09T07:54:06.980Z,93.01
2022-11-09T07:55:07.027Z,93.01
2022-11-09T07:56:06.988Z,92.90
2022-11-09T07:57:06.967Z,92.90
2022-11-09T07:58:06.942Z,92.49
2022-11-09T07:59:06.959Z,93.10
2022-11-09T08:00:06.959Z,92.40
2022-11-09T08:01:06.950Z,92.29
2022-11-09T08:02:06.946Z,92.55
2022-11-09T08:03:06.926Z,92.49
2022-11-09T08:04:06.920Z,92.25
2022-11-09T08:05:06.928Z,92.19
2022-11-09T08:06:06.924Z,92.29
2022-11-09T08:07:07.020Z,92.19
2022-11-09T08:08:06.899Z,92.29
2022-11-09T08:09:06.936Z,92.29
2022-11-09T08:10:06.883Z,92.35
2022-11-09T08:11:06.950Z,92.60
2022-11-09T08:12:06.863Z,92.29
2022-11-09T08:13:06.850Z,91.99
2022-11-09T08:14:06.868Z,92.49
2022-11-09T08:15:06.843Z,92.45
2022-11-09T08:16:06.859Z,92.55
2022-11-09T08:17:06.841Z,92.35
2022-11-09T08:18:06.828Z,92.35
2022-11-09T08:19:06.832Z,92.25
2022-11-09T08:20:06.840Z,92.45
2022-11-09T08:21:06.832Z,92.65
2022-11-09T08:22:06.864Z,92.80
2022-11-09T08:23:06.809Z,93.06
2022-11-09T08:24:06.803Z,92.76
2022-11-09T08:25:06.786Z,92.55
2022-11-09T08:26:06.799Z,92.65
2022-11-09T08:27:06.780Z,93.06
2022-11-09T08:28:09.596Z,92.96
2022-11-09T08:29:08.768Z,92.35
2022-11-09T08:30:06.772Z,92.45
2022-11-09T08:31:06.753Z,92.45
2022-11-09T08:32:06.764Z,92.25
2022-11-09T08:33:06.738Z,92.55
2022-11-09T08:34:06.726Z,92.55
2022-11-09T08:35:06.719Z,92.41
2022-11-09T08:36:06.715Z,92.35
2022-11-09T08:37:06.718Z,92.45
2022-11-09T08:38:06.708Z,92.55
2022-11-09T08:39:06.702Z,92.45
2022-11-09T08:40:06.674Z,92.45
2022-11-09T08:41:12.012Z,92.45
2022-11-09T08:42:07.692Z,92.45
2022-11-09T08:43:06.661Z,92.55
2022-11-09T08:44:06.667Z,92.45
2022-11-09T08:45:06.652Z,92.76
2022-11-09T08:46:06.654Z,92.96
2022-11-09T08:47:06.660Z,93.16
2022-11-09T08:48:06.653Z,92.65
2022-11-09T08:49:06.635Z,92.76
2022-11-09T08:50:06.636Z,93.06
2022-11-09T08:51:06.614Z,93.16
2022-11-09T08:52:06.614Z,92.96
2022-11-09T08:53:06.604Z,92.86
2022-11-09T08:54:06.598Z,92.45
2022-11-09T08:55:06.586Z,92.25
2022-11-09T08:56:06.599Z,91.60
2022-11-09T08:57:06.586Z,92.10
2022-11-09T08:58:06.589Z,92.00
2022-11-09T08:59:06.562Z,92.41
2022-11-09T09:00:06.559Z,92.00
2022-11-09T09:01:06.549Z,92.25
2022-11-09T09:02:06.582Z,92.30
2022-11-09T09:03:06.562Z,92.21
2022-11-09T09:04:06.531Z,91.49
2022-11-09T09:05:06.522Z,91.60
2022-11-09T09:06:06.519Z,91.80
2022-11-09T09:07:06.552Z,91.39
2022-11-09T09:08:06.506Z,91.49
2022-11-09T09:09:06.508Z,91.60
2022-11-09T09:10:06.497Z,91.60
2022-11-09T09:11:06.485Z,91.19
2022-11-09T09:12:06.479Z,91.29
2022-11-09T09:13:06.474Z,91.29
2022-11-09T09:14:06.682Z,91.39
2022-11-09T09:15:06.458Z,91.14
2022-11-09T09:16:06.453Z,90.44
2022-11-09T09:17:06.439Z,90.48
2022-11-09T09:18:06.446Z,91.19
2022-11-09T09:19:06.430Z,90.99
2022-11-09T09:20:06.432Z,91.14
2022-11-09T09:21:06.423Z,90.58
2022-11-09T09:22:06.414Z,90.64
2022-11-09T09:23:06.414Z,90.53
2022-11-09T09:24:06.402Z,90.64
2022-11-09T09:25:06.413Z,90.64
2022-11-09T09:26:06.387Z,90.53
2022-11-09T09:27:06.386Z,90.33
2022-11-09T09:28:06.374Z,90.19
2022-11-09T09:29:06.374Z,90.09
2022-11-09T09:30:06.378Z,89.98
2022-11-09T09:31:06.362Z,89.48
2022-11-09T09:32:06.353Z,89.92
2022-11-09T09:33:06.338Z,88.91
2022-11-09T09:34:06.345Z,89.52
2022-11-09T09:35:06.334Z,89.83
2022-11-09T09:36:06.346Z,90.13
2022-11-09T09:37:06.319Z,89.92
2022-11-09T09:38:06.313Z,89.68
2022-11-09T09:39:06.298Z,89.62
2022-11-09T09:40:06.296Z,89.92
2022-11-09T09:41:06.305Z,89.62
2022-11-09T09:42:06.291Z,89.31
2022-11-09T09:43:06.286Z,89.88
2022-11-09T09:44:06.271Z,89.92
2022-11-09T09:45:06.273Z,89.83
2022-11-09T09:46:06.266Z,90.33
2022-11-09T09:47:06.262Z,89.72
2022-11-09T09:48:06.245Z,89.72
2022-11-09T09:49:06.242Z,90.13
2022-11-09T09:50:06.361Z,89.78
2022-11-09T09:51:06.237Z,89.88
2022-11-09T09:52:06.377Z,89.92
2022-11-09T09:53:23.101Z,89.68
2022-11-09T09:54:08.211Z,89.98
2022-11-09T09:55:06.195Z,88.36
2022-11-09T09:56:06.197Z,88.76
2022-11-09T09:57:06.215Z,88.87
2022-11-09T09:58:06.185Z,89.98
2022-11-09T09:59:06.183Z,88.67
2022-11-09T10:00:06.172Z,88.87
2022-11-09T10:01:06.169Z,88.76
2022-11-09T10:02:06.154Z,88.56
2022-11-09T10:03:06.161Z,88.36
2022-11-09T10:04:06.183Z,88.36
2022-11-09T10:05:06.149Z,88.46
2022-11-09T10:06:06.134Z,88.46
2022-11-09T10:07:06.179Z,88.87
2022-11-09T10:08:06.134Z,88.97
2022-11-09T10:09:06.114Z,89.88
2022-11-09T10:10:06.109Z,88.97
2022-11-09T10:11:06.105Z,89.17
2022-11-09T10:12:06.094Z,88.87
2022-11-09T10:13:06.097Z,88.76
2022-11-09T10:14:06.106Z,88.73
2022-11-09T10:15:06.072Z,88.67
2022-11-09T10:16:06.072Z,88.46
2022-11-09T10:17:06.062Z,88.87
2022-11-09T10:18:06.054Z,88.76
2022-11-09T10:19:06.056Z,88.73
2022-11-09T10:20:06.044Z,88.32
2022-11-09T10:21:06.038Z,88.32
2022-11-09T10:22:06.029Z,88.42
2022-11-09T10:23:06.026Z,88.32
2022-11-09T10:24:06.018Z,87.71
2022-11-09T10:25:37.659Z,87.92
2022-11-09T10:26:14.396Z,88.42
2022-11-09T10:27:07.994Z,88.42
2022-11-09T10:28:06.390Z,87.71
2022-11-09T10:29:21.292Z,88.16
2022-11-09T10:30:07.969Z,88.32
2022-11-09T10:31:05.966Z,88.21
2022-11-09T10:32:05.953Z,87.81
2022-11-09T10:33:05.953Z,87.71
2022-11-09T10:34:06.038Z,87.71
2022-11-09T10:35:05.945Z,87.71
2022-11-09T10:36:08.360Z,87.77
2022-11-09T10:37:05.933Z,88.01
2022-11-09T10:38:05.920Z,88.32
2022-11-09T10:39:05.926Z,88.01
2022-11-09T10:40:05.924Z,87.40
2022-11-09T10:41:05.916Z,88.12
2022-11-09T10:42:05.907Z,87.61
2022-11-09T10:43:05.884Z,88.01
2022-11-09T10:44:05.877Z,87.81
2022-11-09T10:45:05.871Z,87.81
2022-11-09T10:46:05.909Z,87.81
2022-11-09T10:47:05.902Z,87.37
2022-11-09T10:48:05.863Z,86.29
2022-11-09T10:49:05.844Z,87.61
2022-11-09T10:50:05.875Z,87.61
2022-11-09T10:51:05.844Z,87.40
2022-11-09T10:52:05.840Z,87.77
2022-11-09T10:53:05.813Z,87.57
2022-11-09T10:54:05.830Z,86.15
2022-11-09T10:55:05.805Z,86.15
2022-11-09T10:56:05.815Z,86.45
2022-11-09T10:57:06.978Z,86.76
2022-11-09T10:58:06.786Z,87.30
2022-11-09T10:59:05.777Z,87.30
2022-11-09T11:00:05.769Z,87.16
2022-11-09T11:01:05.835Z,87.26
2022-11-09T11:02:05.818Z,85.53
2022-11-09T11:03:05.748Z,86.59
2022-11-09T11:04:05.737Z,86.29
2022-11-09T11:05:05.742Z,86.39
2022-11-09T11:06:05.755Z,86.29
2022-11-09T11:07:05.781Z,86.29
2022-11-09T11:08:05.716Z,85.64
2022-11-09T11:09:05.710Z,86.19
2022-11-09T11:10:05.710Z,85.47
2022-11-09T11:11:27.121Z,85.88
2022-11-09T11:12:07.698Z,86.39
2022-11-09T11:13:05.688Z,85.78
2022-11-09T11:14:05.685Z,85.24
2022-11-09T11:15:05.681Z,85.13
2022-11-09T11:16:05.689Z,85.19
2022-11-09T11:17:05.658Z,84.38
2022-11-09T11:18:05.661Z,85.03
2022-11-09T11:19:05.653Z,84.38
2022-11-09T11:20:05.641Z,84.63
2022-11-09T11:21:05.657Z,84.83
2022-11-09T11:22:05.626Z,84.52
2022-11-09T11:23:05.618Z,84.63
2022-11-09T11:24:05.604Z,84.83
2022-11-09T11:25:05.604Z,85.03
2022-11-09T11:26:05.598Z,85.03
2022-11-09T11:27:10.347Z,85.24
2022-11-09T11:28:07.584Z,85.13
2022-11-09T11:29:05.574Z,85.64
2022-11-09T11:30:05.575Z,85.64
2022-11-09T11:31:05.590Z,84.93
2022-11-09T11:32:05.591Z,85.13
2022-11-09T11:33:05.553Z,85.53
2022-11-09T11:34:05.550Z,85.94
2022-11-09T11:35:05.549Z,85.64
2022-11-09T11:36:05.538Z,85.36
2022-11-09T11:37:05.534Z,84.28
2022-11-09T11:38:05.525Z,84.41
2022-11-09T11:39:05.514Z,81.93
2022-11-09T11:40:05.506Z,80.44
2022-11-09T11:41:05.501Z,77.94
2022-11-09T11:42:05.493Z,77.50
2022-11-09T11:43:05.499Z,76.95
2022-11-09T11:44:05.470Z,75.91
2022-11-09T11:45:26.083Z,76.55
2022-11-09T11:46:07.468Z,75.04
2022-11-09T11:47:05.471Z,74.80
2022-11-09T11:48:05.462Z,76.15
2022-11-09T11:49:05.446Z,76.04
2022-11-09T11:50:05.430Z,76.59
2022-11-09T11:51:05.422Z,76.18
2022-11-09T11:52:05.420Z,76.35
2022-11-09T11:53:05.401Z,77.67
2022-11-09T11:54:05.416Z,77.73
2022-11-09T11:55:05.406Z,77.84
2022-11-09T11:56:05.386Z,77.43
2022-11-09T11:57:05.383Z,76.82
2022-11-09T11:58:05.378Z,77.26
2022-11-09T11:59:05.388Z,77.47
2022-11-09T12:00:05.363Z,77.43
2022-11-09T12:01:05.364Z,75.78
2022-11-09T12:02:05.350Z,76.48
2022-11-09T12:03:05.382Z,76.93
2022-11-09T12:04:05.344Z,77.97
2022-11-09T12:05:05.343Z,78.52
2022-11-09T12:06:05.322Z,78.78
2022-11-09T12:07:05.376Z,78.17
2022-11-09T12:08:05.312Z,77.64
2022-11-09T12:09:05.343Z,75.98
2022-11-09T12:10:05.369Z,74.60
2022-11-09T12:11:05.401Z,74.22
2022-11-09T12:12:05.280Z,73.82
2022-11-09T12:13:05.280Z,72.17
2022-11-09T12:14:05.283Z,71.64
2022-11-09T12:15:05.254Z,71.94
2022-11-09T12:16:05.243Z,70.42
2022-11-09T12:17:05.234Z,71.91
2022-11-09T12:18:05.233Z,72.95
2022-11-09T12:19:05.232Z,72.78
2022-11-09T12:20:05.243Z,71.80
2022-11-09T12:21:05.223Z,71.53
2022-11-09T12:22:05.207Z,72.07
2022-11-09T12:23:05.211Z,72.38
2022-11-09T12:24:05.191Z,71.97
2022-11-09T12:25:05.235Z,72.00
2022-11-09T12:26:05.183Z,73.79
2022-11-09T12:27:30.457Z,75.84
2022-11-09T12:28:07.169Z,76.95
2022-11-09T12:29:05.159Z,75.07
2022-11-09T12:30:05.162Z,73.11
2022-11-09T12:31:05.158Z,72.88
2022-11-09T12:32:05.143Z,72.34
2022-11-09T12:33:05.131Z,73.96
2022-11-09T12:34:05.125Z,73.75
2022-11-09T12:35:05.116Z,75.74
2022-11-09T12:36:05.171Z,76.28
2022-11-09T12:37:05.113Z,76.99
2022-11-09T12:38:05.096Z,76.69
2022-11-09T12:39:05.118Z,75.98
2022-11-09T12:40:05.082Z,77.09
2022-11-09T12:41:05.091Z,76.35
2022-11-09T12:42:05.074Z,75.81
2022-11-09T12:43:05.053Z,75.51
2022-11-09T12:44:05.042Z,75.95
2022-11-09T12:45:06.054Z,75.88
2022-11-09T12:46:05.054Z,77.03
2022-11-09T12:47:05.041Z,77.64
2022-11-09T12:48:05.018Z,77.39
2022-11-09T12:49:05.024Z,77.13
2022-11-09T12:50:05.019Z,76.25
2022-11-09T12:51:05.000Z,75.74
2022-11-09T12:52:05.012Z,76.39